El Arahal, Spain
Current Conditions -  °F | °C
As of 9:00 AM on Friday 19 Dec 2014 (Local Time) from LEMO Reporting Station
Moderate Fog Moderate Fog  
Wind Chill: 39°   Ceiling: 100
Heat Index: 39°   Visibility: 0.06mi
Dew Point: 39°   Wind: 0mph
Humidity: 100%   Direction: NA
Pressure: 30.42"   Gusts: NA
Location:  37.26°N, 5.55°W
Report Text: LEMO 190800Z 00000KT 0100 R20/0200N R02/0300N FG VV001 04/04 Q1030
Loading
Personal Weather Stations






























Interactive Weather Map New forecast layout! Learn more

10-Day Weather Forecast

Advertisements
Track Severe Weather on mobile